NKS113 KFLL-KATL
Flight info
| Callsign | NKS113 |
|---|---|
| Flight time | N/A |
| Altitude | 35000 |
| Route | FRSBE2 STYMY Q77 MJAMS/N0454F370 Q77 SHRKS/N0452F360 LAIRI LARZZ JJEDI4 |
| Aircraft | A20N/M-SDE2E3FGHIRWXY/LB1 |
Departure
| Time | N/A |
|---|---|
| Airport | Fort Lauderdale Hollywood International Airport (KFLL) |
Arrival
| Time | 2026-05-04 21:20 |
|---|---|
| Airport | Hartsfield Jackson Atlanta International Airport (KATL) |
| Time | Latitude | Longitude | Altitude | Speed | Heading |
|---|---|---|---|---|---|
| 2026-05-04 20:41 | 30.82910 | -81.88553 | 36054 ft | 405 kts | 324° |
| 2026-05-04 20:41 | 30.87957 | -81.91483 | 36055 ft | 405 kts | 324° |
| 2026-05-04 20:42 | 30.92987 | -81.94404 | 36044 ft | 404 kts | 324° |
| 2026-05-04 20:42 | 30.97377 | -81.96958 | 36036 ft | 404 kts | 324° |
| 2026-05-04 20:43 | 31.01239 | -81.99204 | 36044 ft | 403 kts | 324° |
| 2026-05-04 20:43 | 31.06235 | -82.02116 | 36052 ft | 404 kts | 324° |
| 2026-05-04 20:44 | 31.11270 | -82.05053 | 36045 ft | 404 kts | 324° |
| 2026-05-04 20:44 | 31.16319 | -82.07999 | 36032 ft | 403 kts | 324° |
| 2026-05-04 20:45 | 31.21328 | -82.10928 | 36034 ft | 403 kts | 325° |
| 2026-05-04 20:45 | 31.26335 | -82.13860 | 36032 ft | 403 kts | 325° |
| 2026-05-04 20:46 | 31.31368 | -82.16809 | 36042 ft | 403 kts | 325° |
| 2026-05-04 20:46 | 31.36396 | -82.19758 | 36038 ft | 403 kts | 325° |
| 2026-05-04 20:47 | 31.41415 | -82.22707 | 36039 ft | 404 kts | 325° |
| 2026-05-04 20:47 | 31.46436 | -82.25659 | 36037 ft | 404 kts | 325° |
| 2026-05-04 20:48 | 31.51484 | -82.28632 | 36044 ft | 405 kts | 325° |
| 2026-05-04 20:48 | 31.56508 | -82.31594 | 36047 ft | 404 kts | 325° |
| 2026-05-04 20:49 | 31.61514 | -82.34547 | 36037 ft | 404 kts | 325° |
| 2026-05-04 20:49 | 31.66565 | -82.37534 | 36041 ft | 404 kts | 326° |
| 2026-05-04 20:50 | 31.71596 | -82.40510 | 36047 ft | 404 kts | 326° |
| 2026-05-04 20:50 | 31.76619 | -82.43487 | 36041 ft | 405 kts | 326° |
| 2026-05-04 20:51 | 31.81646 | -82.46468 | 36035 ft | 404 kts | 326° |
| 2026-05-04 20:51 | 31.86676 | -82.49458 | 35833 ft | 405 kts | 326° |
| 2026-05-04 20:52 | 31.89204 | -82.50962 | 36110 ft | 405 kts | 326° |
| 2026-05-04 20:52 | 31.91704 | -82.52475 | 36130 ft | 403 kts | 324° |
| 2026-05-04 20:52 | 31.94115 | -82.54100 | 35893 ft | 400 kts | 322° |
| 2026-05-04 20:52 | 31.96463 | -82.55883 | 36001 ft | 398 kts | 319° |
| 2026-05-04 20:53 | 32.00844 | -82.59811 | 36035 ft | 394 kts | 314° |
| 2026-05-04 20:53 | 32.05011 | -82.64033 | 36043 ft | 395 kts | 313° |
| 2026-05-04 20:54 | 32.09178 | -82.68285 | 36046 ft | 394 kts | 313° |
| 2026-05-04 20:54 | 32.13348 | -82.72544 | 36044 ft | 395 kts | 313° |
| 2026-05-04 20:55 | 32.17522 | -82.76811 | 36037 ft | 396 kts | 313° |
| 2026-05-04 20:55 | 32.21684 | -82.81074 | 36038 ft | 395 kts | 313° |
| 2026-05-04 20:56 | 32.23754 | -82.83195 | 35886 ft | 391 kts | 313° |
| 2026-05-04 20:56 | 32.25805 | -82.85296 | 35101 ft | 392 kts | 313° |
| 2026-05-04 20:56 | 32.27848 | -82.87399 | 33724 ft | 403 kts | 313° |
| 2026-05-04 20:56 | 32.29969 | -82.89590 | 32269 ft | 409 kts | 314° |
| 2026-05-04 20:57 | 32.32097 | -82.91775 | 31692 ft | 403 kts | 314° |
| 2026-05-04 20:57 | 32.34215 | -82.93947 | 31070 ft | 402 kts | 314° |
| 2026-05-04 20:57 | 32.36305 | -82.96098 | 30399 ft | 402 kts | 314° |
| 2026-05-04 20:57 | 32.38415 | -82.98270 | 29686 ft | 403 kts | 315° |
| 2026-05-04 20:58 | 32.40550 | -83.00464 | 28948 ft | 404 kts | 315° |
| 2026-05-04 20:58 | 32.42679 | -83.02654 | 28207 ft | 406 kts | 315° |
| 2026-05-04 20:58 | 32.44790 | -83.04823 | 27716 ft | 401 kts | 315° |
| 2026-05-04 20:58 | 32.46884 | -83.06979 | 27228 ft | 397 kts | 315° |
| 2026-05-04 20:59 | 32.48957 | -83.09113 | 26724 ft | 393 kts | 315° |
| 2026-05-04 20:59 | 32.51000 | -83.11218 | 26226 ft | 390 kts | 315° |
| 2026-05-04 20:59 | 32.53041 | -83.13327 | 25722 ft | 387 kts | 315° |
| 2026-05-04 20:59 | 32.55051 | -83.15404 | 25218 ft | 385 kts | 315° |
| 2026-05-04 21:00 | 32.57079 | -83.17500 | 24700 ft | 383 kts | 315° |
| 2026-05-04 21:00 | 32.59097 | -83.19586 | 24174 ft | 381 kts | 315° |
| 2026-05-04 21:00 | 32.61091 | -83.21651 | 23669 ft | 379 kts | 315° |
| 2026-05-04 21:00 | 32.63082 | -83.23714 | 23178 ft | 377 kts | 315° |
| 2026-05-04 21:01 | 32.65061 | -83.25767 | 22700 ft | 374 kts | 315° |
| 2026-05-04 21:01 | 32.67014 | -83.27799 | 22215 ft | 372 kts | 315° |
| 2026-05-04 21:01 | 32.68965 | -83.29827 | 21735 ft | 370 kts | 315° |
| 2026-05-04 21:01 | 32.70907 | -83.31846 | 21257 ft | 368 kts | 316° |
| 2026-05-04 21:02 | 32.72825 | -83.33844 | 20782 ft | 366 kts | 316° |
| 2026-05-04 21:02 | 32.74741 | -83.35838 | 20305 ft | 365 kts | 316° |
| 2026-05-04 21:02 | 32.76651 | -83.37826 | 19827 ft | 363 kts | 316° |
| 2026-05-04 21:02 | 32.78523 | -83.39779 | 19358 ft | 362 kts | 316° |
| 2026-05-04 21:03 | 32.80432 | -83.41771 | 18876 ft | 360 kts | 316° |
| 2026-05-04 21:03 | 32.82292 | -83.43713 | 18398 ft | 359 kts | 316° |
| 2026-05-04 21:03 | 32.84181 | -83.45689 | 17911 ft | 359 kts | 316° |
| 2026-05-04 21:03 | 32.86055 | -83.47647 | 17424 ft | 358 kts | 316° |
| 2026-05-04 21:04 | 32.87918 | -83.49596 | 16947 ft | 356 kts | 316° |
| 2026-05-04 21:04 | 32.89764 | -83.51527 | 16471 ft | 355 kts | 316° |
| 2026-05-04 21:04 | 32.91612 | -83.53462 | 15994 ft | 353 kts | 317° |
| 2026-05-04 21:04 | 32.93446 | -83.55383 | 15717 ft | 343 kts | 317° |
| 2026-05-04 21:05 | 32.95208 | -83.57225 | 15518 ft | 334 kts | 317° |
| 2026-05-04 21:05 | 32.96954 | -83.59051 | 15076 ft | 332 kts | 317° |
| 2026-05-04 21:05 | 32.98695 | -83.60877 | 14636 ft | 331 kts | 317° |
| 2026-05-04 21:05 | 33.00409 | -83.62672 | 14213 ft | 329 kts | 317° |
| 2026-05-04 21:06 | 33.02109 | -83.64454 | 13795 ft | 327 kts | 317° |
| 2026-05-04 21:06 | 33.03829 | -83.66260 | 13372 ft | 325 kts | 316° |
| 2026-05-04 21:06 | 33.05513 | -83.68027 | 12953 ft | 324 kts | 317° |
| 2026-05-04 21:06 | 33.07201 | -83.69801 | 12525 ft | 323 kts | 316° |
| 2026-05-04 21:07 | 33.08915 | -83.71600 | 12101 ft | 321 kts | 316° |
| 2026-05-04 21:07 | 33.10555 | -83.73326 | 11934 ft | 311 kts | 317° |
| 2026-05-04 21:07 | 33.12168 | -83.75023 | 11794 ft | 299 kts | 317° |
| 2026-05-04 21:07 | 33.13696 | -83.76630 | 11665 ft | 289 kts | 317° |
| 2026-05-04 21:08 | 33.15188 | -83.78202 | 11396 ft | 285 kts | 317° |
| 2026-05-04 21:08 | 33.16682 | -83.79781 | 11034 ft | 285 kts | 316° |
| 2026-05-04 21:08 | 33.18182 | -83.81367 | 10674 ft | 285 kts | 317° |
| 2026-05-04 21:08 | 33.19637 | -83.82978 | 10323 ft | 285 kts | 314° |
| 2026-05-04 21:09 | 33.21041 | -83.84637 | 9972 ft | 284 kts | 313° |
| 2026-05-04 21:09 | 33.22445 | -83.86314 | 9623 ft | 284 kts | 313° |
| 2026-05-04 21:09 | 33.23834 | -83.87974 | 9281 ft | 284 kts | 313° |
| 2026-05-04 21:09 | 33.25238 | -83.89649 | 8921 ft | 283 kts | 314° |
| 2026-05-04 21:10 | 33.26758 | -83.91160 | 8433 ft | 288 kts | 323° |
| 2026-05-04 21:10 | 33.28409 | -83.92496 | 8279 ft | 287 kts | 325° |
| 2026-05-04 21:10 | 33.30077 | -83.93813 | 8158 ft | 288 kts | 325° |
| 2026-05-04 21:10 | 33.31757 | -83.95161 | 8034 ft | 287 kts | 324° |
| 2026-05-04 21:11 | 33.33404 | -83.96500 | 7902 ft | 285 kts | 324° |
| 2026-05-04 21:11 | 33.35036 | -83.97845 | 7666 ft | 285 kts | 324° |
| 2026-05-04 21:11 | 33.36661 | -83.99193 | 7427 ft | 284 kts | 324° |
| 2026-05-04 21:11 | 33.38283 | -84.00544 | 7184 ft | 283 kts | 323° |
| 2026-05-04 21:12 | 33.39909 | -84.01901 | 6941 ft | 282 kts | 323° |
| 2026-05-04 21:12 | 33.41510 | -84.03241 | 6699 ft | 281 kts | 323° |
| 2026-05-04 21:12 | 33.43097 | -84.04570 | 6414 ft | 279 kts | 324° |
| 2026-05-04 21:12 | 33.44683 | -84.05898 | 6128 ft | 274 kts | 323° |
| 2026-05-04 21:13 | 33.46242 | -84.07204 | 5882 ft | 269 kts | 323° |
| 2026-05-04 21:13 | 33.47745 | -84.08465 | 5643 ft | 263 kts | 324° |
| 2026-05-04 21:13 | 33.49228 | -84.09711 | 5402 ft | 258 kts | 324° |
| 2026-05-04 21:13 | 33.50697 | -84.10944 | 5161 ft | 254 kts | 324° |
| 2026-05-04 21:14 | 33.52125 | -84.12144 | 4922 ft | 249 kts | 324° |
| 2026-05-04 21:14 | 33.53534 | -84.13327 | 4679 ft | 246 kts | 323° |
| 2026-05-04 21:14 | 33.54927 | -84.14497 | 4436 ft | 242 kts | 323° |
| 2026-05-04 21:14 | 33.56305 | -84.15656 | 4207 ft | 237 kts | 323° |
| 2026-05-04 21:15 | 33.57621 | -84.16763 | 4054 ft | 229 kts | 323° |
| 2026-05-04 21:15 | 33.58914 | -84.17852 | 3902 ft | 221 kts | 323° |
| 2026-05-04 21:15 | 33.60151 | -84.18893 | 3749 ft | 214 kts | 323° |
| 2026-05-04 21:15 | 33.61348 | -84.19900 | 3627 ft | 204 kts | 323° |
| 2026-05-04 21:16 | 33.62460 | -84.20853 | 3572 ft | 188 kts | 316° |
| 2026-05-04 21:16 | 33.63098 | -84.22141 | 3507 ft | 181 kts | 281° |
| 2026-05-04 21:16 | 33.63230 | -84.23637 | 3471 ft | 180 kts | 270° |
| 2026-05-04 21:16 | 33.63231 | -84.25130 | 3424 ft | 179 kts | 267° |
| 2026-05-04 21:17 | 33.63209 | -84.26633 | 3391 ft | 178 kts | 266° |
| 2026-05-04 21:17 | 33.63186 | -84.28122 | 3259 ft | 180 kts | 266° |
| 2026-05-04 21:17 | 33.63164 | -84.29605 | 3001 ft | 175 kts | 266° |
| 2026-05-04 21:17 | 33.63194 | -84.31015 | 2746 ft | 164 kts | 269° |
| 2026-05-04 21:18 | 33.63242 | -84.32352 | 2498 ft | 154 kts | 269° |
| 2026-05-04 21:18 | 33.63253 | -84.33595 | 2302 ft | 149 kts | 265° |
| 2026-05-04 21:18 | 33.63212 | -84.34837 | 2165 ft | 150 kts | 265° |
| 2026-05-04 21:18 | 33.63189 | -84.36095 | 1963 ft | 151 kts | 266° |
| 2026-05-04 21:19 | 33.63193 | -84.37356 | 1764 ft | 150 kts | 267° |
| 2026-05-04 21:19 | 33.63187 | -84.38612 | 1551 ft | 149 kts | 266° |
| 2026-05-04 21:19 | 33.63186 | -84.39851 | 1356 ft | 149 kts | 267° |
| 2026-05-04 21:19 | 33.63185 | -84.41094 | 1173 ft | 148 kts | 267° |
| 2026-05-04 21:20 | 33.63181 | -84.42320 | 1023 ft | 142 kts | 269° |
| 2026-05-04 21:20 | 33.63180 | -84.43267 | 1022 ft | 73 kts | 268° |
| 2026-05-04 21:20 | 33.63226 | -84.43626 | 1021 ft | 29 kts | 294° |
| 2026-05-04 21:20 | 33.63302 | -84.43784 | 1019 ft | 18 kts | 300° |
| 2026-05-04 21:21 | 33.63351 | -84.43909 | 1019 ft | 15 kts | 285° |
| 2026-05-04 21:21 | 33.63360 | -84.44039 | 1020 ft | 15 kts | 269° |
| 2026-05-04 21:21 | 33.63361 | -84.44151 | 1020 ft | 7 kts | 282° |
| 2026-05-04 21:21 | 33.63375 | -84.44178 | 1020 ft | 0 kts | 323° |
| 2026-05-04 21:22 | 33.63376 | -84.44178 | 1020 ft | 0 kts | 323° |
| 2026-05-04 21:22 | 33.63406 | -84.44191 | 1020 ft | 10 kts | 353° |
| 2026-05-04 21:22 | 33.63496 | -84.44193 | 1020 ft | 14 kts | 359° |
| 2026-05-04 21:23 | 33.63600 | -84.44196 | 1022 ft | 14 kts | 2° |
| 2026-05-04 21:23 | 33.63662 | -84.44141 | 1022 ft | 12 kts | 81° |
| 2026-05-04 21:23 | 33.63662 | -84.44037 | 1022 ft | 12 kts | 90° |
| 2026-05-04 21:23 | 33.63662 | -84.43922 | 1022 ft | 14 kts | 90° |
| 2026-05-04 21:24 | 33.63663 | -84.43791 | 1022 ft | 17 kts | 90° |
| 2026-05-04 21:24 | 33.63663 | -84.43645 | 1022 ft | 18 kts | 89° |
| 2026-05-04 21:24 | 33.63662 | -84.43478 | 1022 ft | 21 kts | 89° |
| 2026-05-04 21:24 | 33.63663 | -84.43309 | 1022 ft | 19 kts | 90° |
| 2026-05-04 21:25 | 33.63663 | -84.43147 | 1022 ft | 18 kts | 90° |
| 2026-05-04 21:25 | 33.63663 | -84.42996 | 1022 ft | 17 kts | 90° |
| 2026-05-04 21:25 | 33.63662 | -84.42853 | 1022 ft | 16 kts | 90° |
| 2026-05-04 21:25 | 33.63668 | -84.42756 | 1022 ft | 9 kts | 60° |
| 2026-05-04 21:26 | 33.63729 | -84.42735 | 1022 ft | 9 kts | 359° |
| 2026-05-04 21:26 | 33.63795 | -84.42735 | 1022 ft | 9 kts | 1° |
| 2026-05-04 21:26 | 33.63863 | -84.42731 | 1022 ft | 8 kts | 8° |
| 2026-05-04 21:26 | 33.63890 | -84.42673 | 1022 ft | 8 kts | 95° |
| 2026-05-04 21:27 | 33.63888 | -84.42638 | 1022 ft | 1 kts | 90° |
| 2026-05-04 21:27 | 33.63888 | -84.42636 | 1022 ft | 0 kts | 90° |